createdAt,value
2019-03-13T00:02:28.555Z,0.75
2019-03-13T00:04:58.876Z,3.10
2019-03-13T00:07:29.008Z,1.10
2019-03-13T00:09:59.088Z,0.85
2019-03-13T00:12:30.100Z,1.92
2019-03-13T00:15:00.260Z,1.05
2019-03-13T00:17:30.383Z,0.57
2019-03-13T00:20:00.439Z,0.55
2019-03-13T00:22:30.707Z,0.70
2019-03-13T00:25:00.745Z,0.72
2019-03-13T00:27:30.774Z,1.75
2019-03-13T00:30:01.019Z,0.62
2019-03-13T00:32:32.654Z,1.07
2019-03-13T00:35:02.708Z,1.45
2019-03-13T00:37:32.799Z,0.50
2019-03-13T00:40:02.947Z,1.22
2019-03-13T00:42:33.024Z,1.37
2019-03-13T00:45:03.119Z,2.20
2019-03-13T00:47:33.207Z,0.60
2019-03-13T00:50:03.289Z,1.75
2019-03-13T00:52:33.303Z,1.07
2019-03-13T00:55:03.631Z,2.05
2019-03-13T00:57:33.718Z,0.90
2019-03-13T01:00:04.327Z,1.00
2019-03-13T01:02:37.434Z,1.15
2019-03-13T01:05:30.532Z,2.35
2019-03-13T01:08:00.607Z,1.00
2019-03-13T01:10:30.706Z,1.98
2019-03-13T01:13:00.766Z,1.60
2019-03-13T01:15:30.919Z,0.95
2019-03-13T01:18:00.967Z,1.67
2019-03-13T01:20:31.076Z,0.55
2019-03-13T01:23:02.316Z,1.07
2019-03-13T01:25:32.417Z,1.37
2019-03-13T01:28:02.495Z,1.67
2019-03-13T01:30:41.825Z,2.52
2019-03-13T01:33:13.995Z,1.47
2019-03-13T01:35:48.457Z,2.27
2019-03-13T01:38:18.615Z,4.20
2019-03-13T01:40:48.669Z,1.40
2019-03-13T01:43:18.733Z,2.15
2019-03-13T01:45:48.810Z,2.85
2019-03-13T01:48:18.838Z,1.52
2019-03-13T01:50:48.867Z,1.55
2019-03-13T01:53:18.874Z,2.02
2019-03-13T01:55:48.882Z,2.87
2019-03-13T01:58:18.888Z,1.65
2019-03-13T02:00:49.039Z,1.77
2019-03-13T02:03:19.154Z,1.67
2019-03-13T02:05:49.458Z,2.42
2019-03-13T02:08:20.391Z,1.40
2019-03-13T02:10:50.493Z,3.02
2019-03-13T02:13:20.481Z,1.85
2019-03-13T02:15:50.799Z,1.82
2019-03-13T02:18:20.878Z,2.98
2019-03-13T02:20:50.964Z,2.60
2019-03-13T02:23:21.035Z,2.55
2019-03-13T02:25:51.095Z,2.67
2019-03-13T02:28:21.108Z,2.95
2019-03-13T02:30:51.307Z,3.27
2019-03-13T02:33:21.467Z,2.50
2019-03-13T02:35:51.651Z,3.45
2019-03-13T02:38:21.675Z,3.00
2019-03-13T02:40:51.821Z,1.98
2019-03-13T02:43:21.842Z,2.37
2019-03-13T02:45:51.931Z,1.65
2019-03-13T02:48:23.200Z,4.22
2019-03-13T02:50:53.246Z,1.67
2019-03-13T02:53:23.364Z,1.75
2019-03-13T02:55:53.476Z,3.40
2019-03-13T02:58:23.538Z,1.40
2019-03-13T03:01:25.095Z,2.27
2019-03-13T03:03:56.917Z,3.10
2019-03-13T03:06:27.065Z,3.92
2019-03-13T03:08:57.100Z,4.00
2019-03-13T03:11:27.144Z,2.33
2019-03-13T03:13:57.340Z,1.50
2019-03-13T03:16:27.396Z,2.90
2019-03-13T03:18:57.487Z,4.12
2019-03-13T03:21:27.568Z,1.12
2019-03-13T03:23:57.752Z,1.98
2019-03-13T03:26:27.795Z,2.80
2019-03-13T03:28:57.828Z,2.80
2019-03-13T03:31:27.871Z,1.32
2019-03-13T03:34:02.744Z,1.60
2019-03-13T03:36:33.100Z,4.25
2019-03-13T03:39:04.937Z,1.55
2019-03-13T03:41:36.731Z,0.57
2019-03-13T03:44:06.866Z,2.08
2019-03-13T03:46:36.984Z,1.22
2019-03-13T03:49:07.047Z,1.87
2019-03-13T03:51:38.204Z,0.80
2019-03-13T03:54:08.243Z,0.95
2019-03-13T03:56:38.262Z,2.40
2019-03-13T03:59:08.312Z,2.02
2019-03-13T04:01:38.407Z,2.05
2019-03-13T04:04:08.467Z,1.47
2019-03-13T04:06:38.615Z,1.77
2019-03-13T04:09:08.643Z,1.05
2019-03-13T04:11:38.893Z,0.88
2019-03-13T04:14:09.047Z,1.10
2019-03-13T04:16:39.163Z,1.40
2019-03-13T04:19:09.213Z,1.92
2019-03-13T04:21:39.295Z,1.15
2019-03-13T04:24:09.483Z,0.80
2019-03-13T04:26:39.611Z,1.75
2019-03-13T04:29:09.840Z,2.85
2019-03-13T04:31:39.919Z,2.10
2019-03-13T04:34:10.050Z,2.12
2019-03-13T04:36:40.126Z,1.25
2019-03-13T04:39:10.250Z,3.90
2019-03-13T04:41:40.362Z,4.35
2019-03-13T04:44:10.439Z,3.43
2019-03-13T04:46:40.479Z,1.85
2019-03-13T04:49:10.518Z,4.30
2019-03-13T04:51:40.547Z,2.60
2019-03-13T04:54:10.650Z,3.70
2019-03-13T04:56:40.767Z,7.55
2019-03-13T04:59:10.859Z,1.77
2019-03-13T05:01:40.890Z,2.87
2019-03-13T05:04:10.951Z,3.02
2019-03-13T05:06:41.018Z,5.75
2019-03-13T05:09:13.585Z,1.22
2019-03-13T05:11:43.731Z,2.00
2019-03-13T05:14:13.864Z,2.42
2019-03-13T05:16:43.940Z,4.45
2019-03-13T05:19:14.140Z,3.52
2019-03-13T05:21:44.195Z,5.90
2019-03-13T05:24:14.249Z,4.17
2019-03-13T05:26:44.323Z,4.25
2019-03-13T05:29:14.345Z,8.35
2019-03-13T05:31:44.486Z,5.08
2019-03-13T05:34:14.555Z,3.92
2019-03-13T05:36:44.626Z,5.05
2019-03-13T05:39:14.728Z,5.12
2019-03-13T05:41:44.774Z,5.03
2019-03-13T05:44:14.795Z,5.75
2019-03-13T05:46:44.904Z,4.40
2019-03-13T05:49:15.087Z,7.47
2019-03-13T05:51:45.219Z,5.17
2019-03-13T05:54:15.281Z,4.25
2019-03-13T05:56:45.447Z,9.93
2019-03-13T05:59:15.559Z,8.05
2019-03-13T06:01:45.683Z,4.87
2019-03-13T06:04:15.775Z,5.75
2019-03-13T06:06:45.912Z,9.23
2019-03-13T06:09:15.949Z,4.03
2019-03-13T06:11:46.009Z,5.95
2019-03-13T06:14:16.029Z,5.85
2019-03-13T06:16:46.170Z,5.20
2019-03-13T06:19:16.306Z,7.17
2019-03-13T06:21:46.377Z,8.68
2019-03-13T06:24:17.440Z,9.40
2019-03-13T06:26:47.518Z,4.67
2019-03-13T06:29:17.592Z,7.53
2019-03-13T06:31:48.630Z,4.95
2019-03-13T06:34:18.687Z,6.35
2019-03-13T06:36:48.736Z,6.17
2019-03-13T06:39:18.782Z,8.65
2019-03-13T06:41:48.959Z,10.65
2019-03-13T06:44:19.138Z,7.70
2019-03-13T06:46:49.177Z,5.87
2019-03-13T06:49:19.190Z,10.35
2019-03-13T06:51:49.267Z,5.33
2019-03-13T06:54:20.379Z,5.97
2019-03-13T06:56:50.411Z,4.83
2019-03-13T06:59:38.550Z,4.87
2019-03-13T07:02:14.987Z,6.22
2019-03-13T07:05:03.101Z,6.50
2019-03-13T07:07:52.199Z,6.72
2019-03-13T07:10:39.827Z,11.22
2019-03-13T07:13:19.191Z,5.60
2019-03-13T07:16:11.717Z,9.15
2019-03-13T07:18:56.103Z,8.55
2019-03-13T07:21:40.419Z,6.87
2019-03-13T07:24:28.103Z,6.47
2019-03-13T07:27:14.074Z,5.70
2019-03-13T07:30:09.476Z,5.12
2019-03-13T07:32:56.847Z,4.83
2019-03-13T07:35:33.036Z,3.72
2019-03-13T07:38:20.727Z,5.50
2019-03-13T07:40:59.397Z,4.67
2019-03-13T07:43:47.160Z,7.28
2019-03-13T07:46:45.010Z,5.65
2019-03-13T07:49:34.115Z,6.08
2019-03-13T07:52:23.236Z,9.60
2019-03-13T07:55:24.373Z,8.08
2019-03-13T07:58:06.459Z,7.75
2019-03-13T08:00:54.459Z,4.00
2019-03-13T08:03:49.465Z,7.55
2019-03-13T08:06:44.631Z,6.20
2019-03-13T08:09:36.527Z,9.45
2019-03-13T08:12:28.635Z,5.65
2019-03-13T08:15:20.755Z,5.80
2019-03-13T08:18:12.627Z,6.35
2019-03-13T08:21:01.723Z,6.30
2019-03-13T08:23:58.614Z,8.00
2019-03-13T08:26:49.988Z,7.33
2019-03-13T08:29:48.405Z,4.83
2019-03-13T08:32:26.583Z,7.37
2019-03-13T08:35:15.696Z,7.42
2019-03-13T08:37:55.523Z,5.85
2019-03-13T08:40:44.655Z,5.22
2019-03-13T08:43:30.448Z,5.80
2019-03-13T08:46:10.945Z,7.33
2019-03-13T08:48:58.391Z,9.28
2019-03-13T08:51:47.496Z,9.30
2019-03-13T08:54:36.691Z,9.55
2019-03-13T08:57:28.576Z,10.00
2019-03-13T09:00:24.661Z,7.97
2019-03-13T09:03:08.336Z,6.55
2019-03-13T09:05:57.467Z,6.08
2019-03-13T09:08:58.479Z,9.10
2019-03-13T09:11:56.937Z,6.62
2019-03-13T09:14:46.100Z,8.43
2019-03-13T09:17:32.755Z,6.83
2019-03-13T09:20:21.855Z,5.17
2019-03-13T09:23:01.527Z,8.43
2019-03-13T09:25:44.200Z,4.75
2019-03-13T09:28:45.402Z,6.30
2019-03-13T09:31:50.768Z,6.03
2019-03-13T09:34:42.531Z,9.48
2019-03-13T09:37:19.276Z,9.63
2019-03-13T09:40:14.487Z,6.53
2019-03-13T09:43:00.265Z,6.30
2019-03-13T09:45:37.199Z,5.95
2019-03-13T09:48:25.308Z,13.62
2019-03-13T09:51:17.586Z,8.68
2019-03-13T09:53:57.272Z,9.40
2019-03-13T09:56:56.438Z,5.25
2019-03-13T09:59:49.941Z,4.62
2019-03-13T10:02:38.753Z,7.15
2019-03-13T10:05:43.347Z,6.83
2019-03-13T10:08:38.446Z,7.42
2019-03-13T10:11:36.596Z,7.97
2019-03-13T10:14:28.789Z,6.62
2019-03-13T10:17:11.076Z,7.78
2019-03-13T10:20:07.628Z,6.33
2019-03-13T10:23:01.207Z,6.65
2019-03-13T10:25:49.092Z,5.58
2019-03-13T10:28:34.058Z,4.70
2019-03-13T10:31:13.735Z,6.45
2019-03-13T10:33:50.320Z,7.60
2019-03-13T10:36:34.791Z,5.80
2019-03-13T10:39:37.948Z,9.20
2019-03-13T10:42:32.998Z,4.97
2019-03-13T10:45:25.367Z,7.15
2019-03-13T10:48:06.596Z,6.35
2019-03-13T10:50:53.314Z,8.38
2019-03-13T10:53:30.454Z,7.30
2019-03-13T10:56:20.267Z,8.95
2019-03-13T10:59:20.462Z,5.05
2019-03-13T11:02:21.675Z,6.22
2019-03-13T11:05:29.056Z,5.65
2019-03-13T11:08:21.436Z,3.95
2019-03-13T11:11:05.708Z,8.68
2019-03-13T11:13:53.479Z,4.37
2019-03-13T11:16:45.359Z,7.80
2019-03-13T11:19:52.911Z,16.37
2019-03-13T11:22:32.247Z,10.32
2019-03-13T11:25:08.678Z,5.97
2019-03-13T11:27:44.973Z,6.78
2019-03-13T11:30:46.661Z,5.60
2019-03-13T11:33:35.681Z,7.28
2019-03-13T11:36:12.047Z,6.87
2019-03-13T11:39:04.094Z,6.72
2019-03-13T11:41:47.200Z,4.95
2019-03-13T11:44:31.223Z,7.75
2019-03-13T11:47:15.197Z,9.40
2019-03-13T11:50:10.146Z,6.95
2019-03-13T11:52:59.248Z,8.13
2019-03-13T11:55:51.322Z,7.42
2019-03-13T11:58:44.723Z,6.05
2019-03-13T12:01:45.650Z,8.70
2019-03-13T12:04:30.862Z,5.75
2019-03-13T12:07:10.347Z,9.48
2019-03-13T12:09:59.601Z,3.90
2019-03-13T12:12:57.955Z,10.70
2019-03-13T12:15:53.202Z,6.20
2019-03-13T12:18:42.278Z,7.25
2019-03-13T12:21:30.143Z,6.60
2019-03-13T12:24:39.311Z,9.38
2019-03-13T12:27:24.602Z,9.08
2019-03-13T12:30:19.418Z,6.10
2019-03-13T12:33:08.763Z,9.53
2019-03-13T12:36:00.960Z,9.60
2019-03-13T12:38:42.594Z,8.38
2019-03-13T12:41:30.831Z,11.30
2019-03-13T12:44:09.110Z,7.10
2019-03-13T12:47:07.280Z,5.62
2019-03-13T12:49:45.121Z,9.60
2019-03-13T12:52:38.759Z,5.37
2019-03-13T12:55:24.474Z,6.62
2019-03-13T12:58:32.067Z,8.40
2019-03-13T13:01:13.683Z,7.95
2019-03-13T13:04:18.374Z,6.75
2019-03-13T13:07:06.114Z,9.43
2019-03-13T13:09:54.259Z,10.88
2019-03-13T13:12:52.715Z,8.35
2019-03-13T13:15:46.276Z,8.95
2019-03-13T13:18:38.494Z,11.38
2019-03-13T13:21:08.671Z,6.85
2019-03-13T13:23:38.740Z,8.55
2019-03-13T13:26:08.799Z,6.05
2019-03-13T13:28:38.860Z,12.35
2019-03-13T13:31:08.925Z,9.00
2019-03-13T13:33:39.034Z,7.97
2019-03-13T13:36:10.187Z,8.83
2019-03-13T13:38:40.287Z,5.35
2019-03-13T13:41:10.423Z,5.45
2019-03-13T13:43:40.643Z,8.18
2019-03-13T13:46:30.785Z,7.30
2019-03-13T13:49:01.050Z,5.45
2019-03-13T13:51:32.716Z,6.95
2019-03-13T13:54:03.087Z,9.10
2019-03-13T13:56:33.302Z,9.33
2019-03-13T13:59:03.424Z,5.95
2019-03-13T14:01:34.526Z,10.70
2019-03-13T14:04:04.646Z,8.65
2019-03-13T14:06:34.869Z,6.95
2019-03-13T14:09:06.178Z,5.42
2019-03-13T14:11:37.946Z,6.50
2019-03-13T14:14:09.124Z,5.47
2019-03-13T14:16:39.221Z,4.95
2019-03-13T14:19:09.403Z,6.78
2019-03-13T14:21:39.487Z,6.20
2019-03-13T14:24:09.551Z,9.03
2019-03-13T14:26:39.707Z,6.22
2019-03-13T14:29:09.891Z,6.85
2019-03-13T14:31:40.106Z,9.13
2019-03-13T14:34:10.280Z,4.25
2019-03-13T14:36:40.533Z,3.62
2019-03-13T14:39:10.700Z,6.62
2019-03-13T14:41:40.810Z,5.10
2019-03-13T14:44:10.845Z,3.83
2019-03-13T14:46:40.984Z,6.05
2019-03-13T14:49:11.131Z,6.53
2019-03-13T14:51:41.308Z,5.17
2019-03-13T14:54:11.398Z,3.65
2019-03-13T14:56:41.590Z,7.70
2019-03-13T14:59:11.694Z,7.03
2019-03-13T15:01:41.920Z,7.60
2019-03-13T15:04:12.066Z,8.18
2019-03-13T15:06:42.244Z,6.67
2019-03-13T15:09:12.315Z,9.08
2019-03-13T15:11:42.397Z,9.30
2019-03-13T15:14:12.575Z,6.65
2019-03-13T15:16:54.347Z,8.48
2019-03-13T15:19:24.392Z,7.87
2019-03-13T15:21:54.583Z,5.45
2019-03-13T15:24:24.699Z,9.28
2019-03-13T15:26:54.847Z,7.05
2019-03-13T15:29:24.987Z,8.58
2019-03-13T15:31:55.063Z,4.80
2019-03-13T15:34:25.235Z,6.53
2019-03-13T15:36:55.374Z,7.55
2019-03-13T15:39:25.481Z,10.95
2019-03-13T15:41:55.559Z,6.25
2019-03-13T15:44:25.766Z,7.33
2019-03-13T15:46:56.011Z,5.90
2019-03-13T15:49:26.071Z,6.12
2019-03-13T15:51:56.290Z,7.10
2019-03-13T15:54:26.363Z,5.35
2019-03-13T15:56:56.499Z,6.00
2019-03-13T15:59:26.625Z,6.90
2019-03-13T16:01:56.726Z,5.58
2019-03-13T16:04:26.788Z,7.58
2019-03-13T16:06:58.570Z,9.20
2019-03-13T16:09:28.751Z,8.33
2019-03-13T16:11:58.915Z,7.17
2019-03-13T16:14:30.042Z,8.28
2019-03-13T16:17:00.273Z,8.38
2019-03-13T16:19:30.340Z,9.28
2019-03-13T16:22:00.565Z,9.23
2019-03-13T16:24:30.714Z,11.10
2019-03-13T16:27:01.055Z,11.65
2019-03-13T16:29:32.159Z,11.70
2019-03-13T16:32:02.320Z,10.08
2019-03-13T16:34:33.869Z,8.83
2019-03-13T16:37:04.011Z,9.88
2019-03-13T16:39:34.172Z,8.28
2019-03-13T16:42:04.365Z,7.20
2019-03-13T16:44:34.419Z,8.25
2019-03-13T16:47:04.587Z,5.35
2019-03-13T16:49:34.705Z,10.35
2019-03-13T16:52:05.069Z,9.55
2019-03-13T16:54:35.149Z,13.10
2019-03-13T16:57:05.379Z,10.18
2019-03-13T16:59:35.573Z,11.05
2019-03-13T17:02:05.627Z,8.13
2019-03-13T17:04:35.777Z,6.12
2019-03-13T17:07:05.867Z,8.58
2019-03-13T17:09:36.064Z,9.43
2019-03-13T17:12:06.183Z,7.20
2019-03-13T17:14:36.291Z,8.85
2019-03-13T17:17:06.433Z,8.28
2019-03-13T17:19:36.666Z,11.38
2019-03-13T17:22:06.767Z,7.47
2019-03-13T17:24:37.018Z,8.35
2019-03-13T17:27:07.252Z,9.53
2019-03-13T17:29:37.399Z,8.08
2019-03-13T17:32:07.509Z,10.70
2019-03-13T17:34:37.632Z,8.38
2019-03-13T17:37:08.019Z,8.38
2019-03-13T17:39:38.252Z,8.15
2019-03-13T17:42:08.468Z,13.30
2019-03-13T17:44:38.701Z,6.67
2019-03-13T17:47:08.756Z,6.97
2019-03-13T17:49:38.913Z,11.12
2019-03-13T17:52:09.023Z,6.15
2019-03-13T17:54:40.176Z,7.53
2019-03-13T17:57:10.280Z,11.63
2019-03-13T17:59:40.438Z,4.35
2019-03-13T18:02:10.567Z,6.90
2019-03-13T18:04:40.739Z,5.40
2019-03-13T18:07:10.811Z,4.50
2019-03-13T18:09:41.006Z,6.45
2019-03-13T18:12:12.082Z,4.47
2019-03-13T18:14:42.279Z,6.78
2019-03-13T18:17:12.416Z,6.55
2019-03-13T18:19:42.531Z,5.40
2019-03-13T18:22:12.643Z,6.65
2019-03-13T18:24:42.784Z,10.93
2019-03-13T18:27:12.821Z,7.28
2019-03-13T18:29:44.338Z,5.30
2019-03-13T18:32:14.456Z,10.13
2019-03-13T18:34:44.907Z,5.25
2019-03-13T18:37:15.028Z,6.85
2019-03-13T18:39:45.159Z,6.33
2019-03-13T18:42:15.263Z,8.33
2019-03-13T18:44:45.393Z,9.95
2019-03-13T18:47:15.499Z,9.83
2019-03-13T18:49:45.548Z,7.67
2019-03-13T18:52:15.719Z,10.23
2019-03-13T18:54:45.809Z,7.33
2019-03-13T18:57:15.939Z,10.32
2019-03-13T18:59:46.082Z,5.65
2019-03-13T19:02:16.195Z,7.10
2019-03-13T19:04:46.278Z,8.73
2019-03-13T19:07:16.441Z,7.70
2019-03-13T19:09:46.570Z,4.17
2019-03-13T19:12:16.655Z,3.33
2019-03-13T19:14:46.739Z,6.20
2019-03-13T19:17:16.805Z,4.55
2019-03-13T19:19:46.860Z,6.87
2019-03-13T19:22:16.939Z,4.87
2019-03-13T19:24:47.059Z,3.90
2019-03-13T19:27:17.163Z,4.85
2019-03-13T19:29:47.243Z,4.00
2019-03-13T19:32:17.301Z,3.22
2019-03-13T19:34:47.396Z,2.58
2019-03-13T19:37:17.509Z,4.95
2019-03-13T19:39:47.620Z,3.45
2019-03-13T19:42:17.727Z,4.80
2019-03-13T19:44:48.952Z,2.22
2019-03-13T19:47:19.041Z,1.32
2019-03-13T19:49:49.123Z,1.82
2019-03-13T19:52:19.241Z,2.47
2019-03-13T19:54:49.323Z,1.92
2019-03-13T19:57:19.424Z,2.95
2019-03-13T19:59:49.495Z,3.65
2019-03-13T20:02:19.663Z,2.22
2019-03-13T20:04:49.765Z,2.08
2019-03-13T20:07:19.859Z,2.42
2019-03-13T20:09:50.047Z,2.00
2019-03-13T20:12:21.236Z,4.72
2019-03-13T20:14:51.339Z,3.30
2019-03-13T20:17:21.411Z,4.70
2019-03-13T20:19:52.395Z,3.33
2019-03-13T20:22:22.907Z,3.10
2019-03-13T20:24:53.303Z,4.20
2019-03-13T20:27:23.373Z,4.15
2019-03-13T20:29:53.576Z,3.55
2019-03-13T20:32:23.724Z,2.52
2019-03-13T20:34:53.762Z,5.70
2019-03-13T20:37:23.824Z,3.65
2019-03-13T20:39:53.905Z,3.17
2019-03-13T20:42:24.074Z,4.45
2019-03-13T20:44:54.266Z,4.70
2019-03-13T20:47:24.439Z,4.78
2019-03-13T20:49:54.469Z,2.98
2019-03-13T20:52:24.624Z,4.35
2019-03-13T20:54:54.751Z,4.90
2019-03-13T20:57:24.818Z,5.53
2019-03-13T20:59:54.927Z,5.60
2019-03-13T21:02:25.068Z,8.40
2019-03-13T21:04:55.100Z,4.22
2019-03-13T21:07:25.267Z,4.22
2019-03-13T21:09:55.687Z,6.22
2019-03-13T21:12:25.932Z,3.85
2019-03-13T21:14:56.164Z,2.20
2019-03-13T21:17:26.346Z,2.67
2019-03-13T21:19:56.554Z,1.92
2019-03-13T21:22:26.709Z,2.58
2019-03-13T21:24:56.836Z,4.37
2019-03-13T21:27:26.898Z,4.15
2019-03-13T21:29:57.105Z,4.37
2019-03-13T21:32:27.281Z,2.70
2019-03-13T21:34:58.463Z,3.90
2019-03-13T21:37:28.528Z,4.20
2019-03-13T21:39:58.565Z,4.40
2019-03-13T21:42:28.707Z,2.47
2019-03-13T21:44:58.737Z,2.80
2019-03-13T21:47:28.769Z,2.50
2019-03-13T21:49:58.786Z,3.27
2019-03-13T21:52:28.855Z,5.67
2019-03-13T21:54:58.947Z,3.52
2019-03-13T21:57:29.379Z,4.58
2019-03-13T22:00:00.407Z,4.37
2019-03-13T22:02:33.104Z,4.00
2019-03-13T22:05:02.307Z,3.65
2019-03-13T22:07:33.499Z,4.87
2019-03-13T22:10:05.595Z,3.42
2019-03-13T22:12:35.657Z,4.83
2019-03-13T22:15:06.623Z,3.50
2019-03-13T22:17:36.672Z,6.95
2019-03-13T22:20:07.021Z,5.42
2019-03-13T22:22:37.151Z,3.80
2019-03-13T22:25:07.730Z,6.30
2019-03-13T22:27:37.816Z,6.67
2019-03-13T22:30:11.830Z,6.40
2019-03-13T22:32:41.987Z,4.60
2019-03-13T22:35:12.130Z,4.70
2019-03-13T22:37:42.243Z,4.58
2019-03-13T22:40:12.587Z,5.75
2019-03-13T22:42:44.717Z,5.85
2019-03-13T22:45:14.517Z,3.58
2019-03-13T22:47:44.691Z,5.85
2019-03-13T22:50:17.250Z,5.47
2019-03-13T22:52:47.460Z,4.85
2019-03-13T22:55:17.706Z,6.42
2019-03-13T22:57:47.783Z,3.85
2019-03-13T23:01:06.881Z,7.22
2019-03-13T23:03:40.406Z,6.33
2019-03-13T23:06:09.469Z,5.92
2019-03-13T23:08:39.725Z,6.60
2019-03-13T23:11:09.879Z,3.77
2019-03-13T23:13:39.953Z,6.40
2019-03-13T23:16:10.043Z,4.62
2019-03-13T23:18:40.211Z,5.25
2019-03-13T23:21:10.499Z,5.15
2019-03-13T23:23:40.863Z,4.33
2019-03-13T23:26:11.000Z,3.87
2019-03-13T23:28:41.961Z,4.50
2019-03-13T23:31:11.986Z,4.95
2019-03-13T23:33:42.158Z,4.58
2019-03-13T23:36:12.177Z,6.80
2019-03-13T23:38:42.168Z,6.30
2019-03-13T23:41:12.246Z,4.15
2019-03-13T23:43:42.436Z,5.50
2019-03-13T23:46:12.493Z,4.45
2019-03-13T23:48:43.114Z,2.72
2019-03-13T23:51:13.300Z,6.12
2019-03-13T23:53:44.392Z,4.53
2019-03-13T23:56:14.442Z,4.33
2019-03-13T23:58:44.462Z,6.90
